This is the latest recevied weather packets stored in our database for station/object KC4JES. If no packets are shown the sender has not sent any weather packets the latest 10 day(s).
| Time | Temp. | Humidity | Pressure | Rain* | Wind** | Luminosity | Snow |
|---|---|---|---|---|---|---|---|
| 1777587459 | 27.78° C | 70% | 1008.5 hPa | 0 mm | - | 90 W/m² | - |
| 1777587156 | 27.22° C | 70% | 1008.4 hPa | 0 mm | - | 77 W/m² | - |
| 1777586851 | 27.78° C | 69% | 1008.5 hPa | 0 mm | - | 61 W/m² | - |
| 1777586547 | 27.78° C | 70% | 1008.7 hPa | 0 mm | - | 62 W/m² | - |
| 1777586243 | 27.78° C | 70% | 1008.5 hPa | 0 mm | - | 73 W/m² | - |
| 1777585941 | 27.78° C | 72% | 1008.7 hPa | 0 mm | - | 68 W/m² | - |
| 1777585636 | 27.78° C | 73% | 1008.6 hPa | 0 mm | - | 65 W/m² | - |
| 1777585331 | 27.78° C | 72% | 1008.8 hPa | 0 mm | - | 71 W/m² | - |
| 1777585026 | 28.89° C | 68% | 1008.8 hPa | 0 mm | - | 111 W/m² | - |
| 1777584723 | 29.44° C | 66% | 1008.8 hPa | 0 mm | - | 94 W/m² | - |
| 1777584421 | 30° C | 64% | 1008.7 hPa | 0 mm | - | 408 W/m² | - |
| 1777584117 | 30.56° C | 61% | 1008.7 hPa | 0 mm | - | 419 W/m² | - |
| 1777583816 | 30.56° C | 62% | 1009 hPa | 0 mm | - | 463 W/m² | - |
| 1777583511 | 30° C | 63% | 1008.8 hPa | 0 mm | - | 459 W/m² | - |
| 1777583205 | 29.44° C | 67% | 1009 hPa | 0 mm | - | 515 W/m² | - |
| 1777582900 | 28.89° C | 67% | 1009 hPa | 0 mm | - | 524 W/m² | - |
| 1777582598 | 28.89° C | 67% | 1009.2 hPa | 0 mm | - | 568 W/m² | - |
| 1777582293 | 28.89° C | 68% | 1009.4 hPa | 0 mm | - | 374 W/m² | - |
| 1777581991 | 28.89° C | 68% | 1009.2 hPa | 0 mm | - | 576 W/m² | - |
| 1777581686 | 27.78° C | 72% | 1009.3 hPa | 0 mm | - | 664 W/m² | - |
| 1777581381 | 27.78° C | 71% | 1009.3 hPa | 0 mm | - | 156 W/m² | - |
| 1777581075 | 27.78° C | 71% | 1009.4 hPa | 0 mm | - | 574 W/m² | - |
| 1777580774 | 26.67° C | 75% | 1009.5 hPa | 0 mm | - | 684 W/m² | - |
| 1777580471 | 26.67° C | 74% | 1009.3 hPa | 0 mm | - | 114 W/m² | - |
| 1777580171 | 26.67° C | 73% | 1009.6 hPa | 0 mm | - | 109 W/m² | - |
* Rain latest hour (hover to see other rain measurements)
** Current wind speed in m/s (hover to see current wind gust speed)